Loisir ou Compétition : Rejoignez un Club de la Fédération

Résultats

SAMSE NATIONAL TOUR FFS 3

GRAND BORNAND

FS Dames

Jury de Compétition

Délégué Technique :
VITTOZ STEPHANE (MB)
D.T. Adjoint :
PIQUOT SYLVAIN (MB)
Dir. Epreuve :
ROCHET JOANNY (MB)

Caractéristiques de la Piste

Piste :
LES PLANS
Distance :
7.5 km
Point Haut :
 
Point Bas :
 
Montée Tot. :
 
Montée Max. :
 
Homologation :
2010-3-2

Pénalité Appliquée :
37.6500
Coefficient :
800

Catégorie :
U18+U20
Style :
L
Clt Dos Clt/Cat Code An Nom Prénom Com Club Temps Ecart Points
Classés
1 1057 1/U20 FFS2625482 1995 CARDON JULIE SA SC MENUIRES 22:39.8 00:00.0 37.65
2 1050 2/U20 FFS2631427 1996 DEGRANGE MANON SA CS LA FECLAZ 22:45.4 00:05.6 40.94
3 1059 3/U20 FFS2615397 1996 VANDERWEYEN LAURA AP GAP-BAYARD 22:46.5 00:06.7 41.59
4 1036 1/U18 FFS2620847 1998 CHAMIOT MAITRAL LAURA SA CS SAISIES 22:58.3 00:18.5 48.53
5 1030 2/U18 FFS2632250 1998 DUCORDEAU JULIETTE DA CS VILLARD 23:00.5 00:20.7 49.83
6 1052 3/U18 FFS2620619 1997 BULLE EMILIE DA US AUTRANNAI 23:00.9 00:21.1 50.06
7 1023 4/U18 FFS2629835 1997 MAHIEU ALICE MB SALLANCHES 23:10.6 00:30.8 55.77
8 1031 5/U18 FFS2643589 1998 CHALIVET AMELIE SA MONOLITHE SF 23:22.1 00:42.3 62.54
9 1054 4/U20 FFS2637859 1996 BENTZ CORALIE MB VILLARD/BOEG 23:26.4 00:46.6 65.07
10 1058 6/U18 FFS2638907 1997 GROS CECILE AP ES VALLOUISE 23:29.0 00:49.2 66.60
11 1051 7/U18 FFS2615767 1997 BOVAGNE LINA MB CS MEGEVE 23:36.1 00:56.3 70.77
12 1055 5/U20 FFS2643697 1996 ZAMBAUX LEA MJ OLYMP MT DOR 23:48.9 01:09.1 78.30
13 1047 8/U18 FFS2626100 1997 LOCATELLI EVA DA SA MEAUDRAIS 23:51.5 01:11.7 79.83
14 1024 6/U20 FFS2637958 1996 AVRILLON ANAELLE MB DRAGONS ANNY 23:56.6 01:16.8 82.83
15 1048 7/U20 FFS2654516 1996 TOURNAY FANNY SA CS LA FECLAZ 23:57.9 01:18.1 83.60
16 1056 8/U20 FFS2626362 1995 SERCA CECILE AP ES VALLOUISE 23:58.7 01:18.9 84.07
17 1061 9/U18 FFS2639197 1997 CHABRE MANON AP GAP-BAYARD 24:00.7 01:20.9 85.25
18 1020 10/U18 FFS2650540 1998 GUIGONNAT GILONNE MB VILLARD/BOEG 24:02.3 01:22.5 86.19
19 1044 9/U20 FFS2638033 1995 BLONDEAU MAELISS MJ SC MONT NOIR 24:05.4 01:25.6 88.01
20 1026 11/U18 FFS2649316 1998 VULLIET SOLENE MB SCNP ROCHOIS 24:18.3 01:38.5 95.60
21 1034 12/U18 FFS2628759 1997 LYAUDET MARGOT LY US CORMARANC 24:19.7 01:39.9 96.42
22 1049 13/U18 FFS2619948 1997 BRON JULIE MB LES GETS S.C 24:21.0 01:41.2 97.19
23 1043 10/U20 FFS2637963 1996 PERRILLAT BOTTONET JUSTIN MB SC GD BORNAN 24:25.1 01:45.3 99.60
24 1018 14/U18 FFS2644080 1997 LECOQ JAMMES MAROUCHKA MB CS CHAMONIX 24:28.8 01:49.0 101.78
25 1053 11/U20 FFS2631636 1996 BARTHELEMY KATIA AP ES VALLOUISE 24:29.0 01:49.2 101.89
26 1032 15/U18 FFS2649037 1998 PIERREL MARGAUX MB SC GD BORNAN 24:29.5 01:49.7 102.19
27 1033 16/U18 FFS2652903 1997 SALVI LAURA MJ A.S MOUTHE 24:31.4 01:51.6 103.31
28 1045 17/U18 FFS2638878 1997 FLOCHON LAURIE SA CS LA FECLAZ 24:33.2 01:53.4 104.37
29 1016 18/U18 FFS2650090 1998 PAULY ELOISE DA SNB CHAMROUS 24:35.3 01:55.5 105.60
30 1037 19/U18 FFS2632334 1998 SUTTER LORIANE MJ SMBM/MORBIER 24:38.0 01:58.2 107.19
31 1042 12/U20 FFS2647377 1996 LAURENCE CLEMENTINE MJ CSR PONTARLI 24:40.1 02:00.3 108.43
32 1062 13/U20 FFS2626799 1995 YSEBAERT ANAIS AP AS EDELWEISS 24:42.2 02:02.4 109.66
33 1021 14/U20 FFS2643953 1995 POURROY MARION SA CS LA FECLAZ 24:44.6 02:04.8 111.07
34 1060 15/U20 FFS2624800 1995 TARDY NOEMIE SA SC ARECHES 24:46.3 02:06.5 112.07
35 1028 20/U18 FFS2649232 1998 GILBERT CORA AP SERRE CHEVAL 24:54.7 02:14.9 117.01
36 1041 16/U20 FFS2632062 1996 GOALABRE LOUISE AP SC QUEYRAS 24:59.1 02:19.3 119.60
37 1015 21/U18 FFS2654456 1998 CHALLAMEL MARINE DA SN CHARTROUS 25:01.6 02:21.8 121.07
38 1040 22/U18 FFS2643743 1997 BASTARD ROSSET ISALINE MB SC GD BORNAN 25:07.7 02:27.9 124.66
39 1039 23/U18 FFS2643822 1997 LE GOUIL LYDIE MB DRAGONS ANNY 25:10.4 02:30.6 126.25
40 1038 17/U20 FFS2603113 1995 PERRILLAT AMEDE MAILYS SA CS LA FECLAZ 25:13.4 02:33.6 128.02
41 1027 24/U18 FFS2644377 1998 CHENAL CLEMENCE SA SC PEISEY VA 25:15.3 02:35.5 129.13
42 1012 25/U18 FFS2649507 1998 LAMBERT JENNIFER SA CS LA FECLAZ 25:18.6 02:38.8 131.08
43 1022 26/U18 FFS2649320 1998 FOURNIER FANNY MB SCNP ROCHOIS 25:25.5 02:45.7 135.13
44 1010 27/U18 FFS2649322 1998 MONNIER CHLOE MB SCNP ROCHOIS 25:37.6 02:57.8 142.25
45 1046 28/U18 FFS2649305 1997 SANDOZ JUSTINE MJ AS VERRIERES 25:43.9 03:04.1 145.96
46 1025 18/U20 FFS2637325 1996 BE LOUISE SA CS LA FECLAZ 25:57.1 03:17.3 153.73
47 1029 29/U18 FFS2621752 1997 ABOULY KAYLA SA SC MENUIRES 26:06.4 03:26.6 159.20
48 1008 30/U18 FFS2639332 1998 VOLTA JULIE MJ HT JURA SKI 26:17.8 03:38.0 165.90
49 1019 31/U18 FFS2649036 1998 PESSEY LOTUS MB SC GD BORNAN 26:18.6 03:38.8 166.37
50 1014 32/U18 FFS2649045 1998 MISSILLIER LEA MB SC GD BORNAN 26:45.3 04:05.5 182.08
51 1017 19/U20 FFS2638939 1996 GOCYK ANGELE LY CS VALROMEY 26:59.1 04:19.3 190.20
52 1013 33/U18 FFS2633627 1998 PESENTI CLEMENTINE MJ SMBM/MORBIER 27:13.5 04:33.7 198.67
53 1007 34/U18 FFS2649039 1998 BASTARD ROSSET JUSTINE MB SC GD BORNAN 27:13.6 04:33.8 198.73
54 1011 35/U18 FFS2649318 1998 POISSON SOLINE MB SCNP ROCHOIS 27:18.1 04:38.3 201.38
55 1035 20/U20 FFS2631420 1996 HOURS BERANGERE SA CS LA FECLAZ 27:26.6 04:46.8 206.38
56 1002 36/U18 FFS2639013 1997 FAIVRE BERSCH CARLA DA SNB CHAMROUS 28:06.7 05:26.9 229.97
57 1004 37/U18 FFS2633752 1998 ZAMPIN VIOLETTE MB CS MEGEVE 28:24.6 05:44.8 240.50
58 1006 38/U18 FFS2649035 1998 PESSEY ROSE MB SC GD BORNAN 29:42.0 07:02.2 286.04
Abandons
1001 FFS2641616 1997 LAROCHE ANGELE MB CS LA CLUSAZ
1003 FFS2649725 1998 DUCLOUX ALEXANDRA MB PRAZ LYS-SOM
1005 FFS2648813 1998 MULLER EMMA MB DRAGONS ANNY
1009 FFS2643150 1998 GALLAY ZOE MB CS LA CLUSAZ